Latest Weather Observations for Scotts Peak

IDT60801

Issued at 11:31 am EST Saturday 25 April 2015 (issued every 30 minutes, with the page automatically refreshed every 10 minutes)

About weather observations | Map of weather stations | Latest weather observations for TAS | Other Formats
Station Details ID: 097083 Name: SCOTTS PEAK DAM Lat: -43.04 Lon: 146.27 Height: 408.0 m
Data from the previous 72 hours. | See also: Recent months at Scotts Peak
Date/Time
EST
Temp
°C
App
Temp
°C
Dew
Point
Rel
Hum
%
Delta-T
°C
Wind Press
QNH
hPa
Press
MSL
hPa
Rain
since 9 am
mm
Dir
 
Spd
km/h
Gust
km/h
Spd
kts
Gust
kts
25/11:30am 8.9 4.4 6.2 83 1.3 SW 19 24 10 13 - - 0.0
25/11:00am 8.3 2.8 5.8 84 1.2 SW 24 30 13 16 - - 0.0
25/10:30am 7.9 2.8 5.9 87 0.9 WSW 22 30 12 16 - - 0.0
25/10:00am 7.4 1.9 6.0 91 0.6 SW 24 32 13 17 - - 0.0
25/09:30am 7.1 2.4 6.0 93 0.5 SW 20 32 11 17 - - 0.0
25/09:00am 6.9 0.3 6.0 94 0.4 SW 30 35 16 19 - - 0.6
25/08:30am 6.8 1.0 6.4 97 0.2 SW 26 35 14 19 - - 0.6
25/08:00am 6.9 1.6 6.6 98 0.1 SW 24 32 13 17 - - 0.6
25/07:30am 7.2 1.9 6.8 97 0.2 SW 24 30 13 16 - - 0.6
25/07:00am 7.4 2.9 6.8 96 0.3 SW 20 28 11 15 - - 0.6
25/06:30am 7.8 3.3 7.1 95 0.3 SSW 20 24 11 13 - - 0.6
25/06:00am 7.8 4.4 7.5 98 0.1 WSW 15 20 8 11 - - 0.6
25/05:30am 7.8 4.0 7.5 98 0.1 WSW 17 20 9 11 - - 0.6
25/05:00am 8.0 3.8 7.4 96 0.3 SW 19 24 10 13 - - 0.6
25/04:30am 8.0 5.0 7.6 97 0.2 WSW 13 24 7 13 - - 0.6
25/04:00am 7.8 4.7 7.2 96 0.3 WSW 13 17 7 9 - - 0.6
25/03:30am 8.0 4.5 7.1 94 0.4 SW 15 20 8 11 - - 0.6
25/03:00am 8.2 4.0 7.4 95 0.4 SW 19 26 10 14 - - 0.6
25/02:30am 8.1 3.8 7.7 97 0.2 WSW 20 28 11 15 - - 0.2
25/02:00am 8.0 4.2 7.7 98 0.1 W 17 24 9 13 - - 0.2
25/01:30am 8.0 5.0 7.7 98 0.1 W 13 20 7 11 - - 0.2
25/01:00am 8.0 4.2 7.7 98 0.1 WSW 17 24 9 13 - - 0.2
25/12:30am 8.0 4.2 7.7 98 0.1 W 17 24 9 13 - - 0.2
25/12:00am 8.1 5.1 7.8 98 0.1 WNW 13 22 7 12 - - 0.2
 
Date/Time
EST
Temp
°C
App
Temp
°C
Dew
Point
Rel
Hum
%
Delta-T
°C
Wind Press
QNH
hPa
Press
MSL
hPa
Rain
since 9 am
mm
Dir
 
Spd
km/h
Gust
km/h
Spd
kts
Gust
kts
24/11:30pm 8.1 5.5 7.8 98 0.1 W 11 17 6 9 - - 0.2
24/11:00pm 8.1 5.1 7.7 97 0.2 W 13 17 7 9 - - 0.2
24/10:30pm 8.3 5.6 7.4 94 0.4 W 11 17 6 9 - - 0.2
24/10:00pm 8.5 5.9 7.6 94 0.4 W 11 19 6 10 - - 0.2
24/09:30pm 8.3 4.5 7.4 94 0.4 W 17 22 9 12 - - 0.2
24/09:00pm 8.5 4.7 7.7 95 0.4 WSW 17 28 9 15 - - 0.2
24/08:30pm 8.7 5.0 7.9 95 0.4 WSW 17 30 9 16 - - 0.2
24/08:00pm 8.5 3.8 7.9 96 0.3 WSW 22 30 12 16 - - 0.2
24/07:30pm 8.8 5.2 8.4 97 0.2 W 17 30 9 16 - - 0.2
24/07:00pm 9.1 5.9 8.3 95 0.4 WSW 15 20 8 11 - - 0.0
24/06:30pm 9.3 6.0 8.2 93 0.5 WSW 15 22 8 12 - - 0.0
24/06:00pm 9.6 6.4 8.4 92 0.6 WSW 15 20 8 11 - - 0.0
24/05:30pm 9.7 5.1 8.3 91 0.7 WSW 22 30 12 16 - - 0.0
24/05:00pm 10.0 4.2 7.9 87 1.0 WSW 28 33 15 18 - - 0.0
24/04:30pm 10.3 5.7 8.2 87 1.0 WSW 22 28 12 15 - - 0.0
24/04:00pm 11.2 7.3 8.6 84 1.3 WSW 19 24 10 13 - - 0.0
24/03:30pm 11.8 7.9 8.8 82 1.5 W 19 22 10 12 - - 0.0
24/03:00pm 12.5 9.4 8.8 78 1.9 WSW 15 20 8 11 - - 0.0
24/02:30pm 12.8 10.9 9.1 78 1.9 W 9 13 5 7 - - 0.0
24/02:00pm 12.6 9.9 8.9 78 1.9 WSW 13 17 7 9 - - 0.0
24/01:30pm 12.7 9.6 9.0 78 1.9 WSW 15 19 8 10 - - 0.0
24/01:00pm 13.0 9.1 9.3 78 1.9 WSW 20 24 11 13 - - 0.0
24/12:30pm 12.3 9.0 9.7 84 1.4 WSW 17 22 9 12 - - 0.0
24/12:00pm 11.5 8.7 9.9 90 0.8 WSW 15 20 8 11 - - 0.0
24/11:30am 11.1 8.6 9.7 91 0.7 WSW 13 19 7 10 - - 0.0
24/11:00am 10.8 8.4 10.2 96 0.3 W 13 15 7 8 - - 0.0
24/10:30am 10.9 9.8 10.7 99 0.1 NW 7 11 4 6 - - 0.0
24/10:00am 10.1 9.0 9.9 99 0.1 NW 6 9 3 5 - - 0.0
24/09:30am 9.4 9.2 9.1 98 0.2 CALM 0 0 0 0 - - 0.0
24/09:00am 9.7 9.6 9.6 99 0.1 CALM 0 0 0 0 - - 0.2
24/08:30am 9.7 8.5 9.6 99 0.1 NNW 6 7 3 4 - - 0.2
24/08:00am 9.4 7.9 9.3 99 0.1 NNW 7 9 4 5 - - 0.2
24/07:30am 9.2 8.6 9.1 99 0.1 NNW 2 7 1 4 - - 0.2
24/07:00am 8.9 8.6 8.8 99 0.0 CALM 0 0 0 0 - - 0.2
24/06:30am 9.1 7.6 9.0 99 0.1 N 7 9 4 5 - - 0.2
24/06:00am 9.0 7.6 8.9 99 0.1 NW 6 9 3 5 - - 0.2
24/05:30am 8.9 7.3 8.8 99 0.0 NW 7 9 4 5 - - 0.2
24/05:00am 8.8 8.5 8.7 99 0.0 CALM 0 0 0 0 - - 0.2
24/04:30am 8.7 8.0 8.4 98 0.1 N 2 7 1 4 - - 0.2
24/04:00am 8.3 6.7 8.0 98 0.1 ESE 6 6 3 3 - - 0.2
24/03:30am 8.4 6.6 8.1 98 0.1 SSE 7 9 4 5 - - 0.2
24/03:00am 8.3 7.8 7.9 97 0.2 CALM 0 0 0 0 - - 0.2
24/02:30am 8.5 6.9 8.1 97 0.2 SSE 6 7 3 4 - - 0.2
24/02:00am 8.5 6.9 8.1 97 0.2 SSE 6 7 3 4 - - 0.2
24/01:30am 8.4 7.6 8.0 97 0.2 SSE 2 7 1 4 - - 0.2
24/01:00am 8.5 6.7 8.1 97 0.2 SSE 7 9 4 5 - - 0.2
24/12:30am 8.4 6.2 8.0 97 0.2 SSE 9 11 5 6 - - 0.2
24/12:00am 8.3 6.0 7.5 95 0.4 ESE 9 11 5 6 - - 0.2
 
Date/Time
EST
Temp
°C
App
Temp
°C
Dew
Point
Rel
Hum
%
Delta-T
°C
Wind Press
QNH
hPa
Press
MSL
hPa
Rain
since 9 am
mm
Dir
 
Spd
km/h
Gust
km/h
Spd
kts
Gust
kts
23/11:30pm 9.1 7.5 7.9 92 0.6 SSE 6 9 3 5 - - 0.2
23/11:00pm 9.5 8.4 8.3 92 0.6 SSE 4 7 2 4 - - 0.2
23/10:30pm 9.7 8.1 8.6 93 0.5 SE 7 11 4 6 - - 0.2
23/10:00pm 9.7 7.3 8.5 92 0.6 SSE 11 13 6 7 - - 0.2
23/09:30pm 9.7 7.6 8.3 91 0.7 SSE 9 11 5 6 - - 0.2
23/09:00pm 9.7 7.2 8.1 90 0.8 SSE 11 13 6 7 - - 0.2
23/08:30pm 10.0 7.5 8.3 89 0.8 SSE 11 13 6 7 - - 0.2
23/08:00pm 10.1 8.0 8.2 88 0.9 SSE 9 13 5 7 - - 0.2
23/07:30pm 10.3 7.8 8.4 88 0.9 SSE 11 13 6 7 - - 0.2
23/07:00pm 10.7 8.7 8.5 86 1.1 S 9 11 5 6 - - 0.2
23/06:30pm 11.3 10.2 8.5 83 1.4 ESE 4 9 2 5 - - 0.2
23/06:00pm 10.9 7.2 7.8 81 1.5 NNE 17 17 9 9 - - 0.2
23/05:30pm 11.5 8.9 7.6 77 1.9 NNE 11 15 6 8 - - 0.2
23/05:00pm 13.4 13.0 8.3 71 2.6 CALM 0 4 0 2 - - 0.2
23/04:30pm 13.9 12.5 8.9 72 2.6 E 6 9 3 5 - - 0.2
23/04:00pm 14.7 14.1 9.1 69 2.9 E 2 6 1 3 - - 0.2
23/03:30pm 15.6 14.4 9.7 68 3.1 NNW 6 9 3 5 - - 0.2
23/03:00pm 15.7 14.4 10.0 69 3.0 NNE 7 11 4 6 - - 0.2
23/02:30pm 15.2 14.2 10.4 73 2.6 ESE 6 9 3 5 - - 0.0
23/02:00pm 14.2 13.1 9.8 75 2.3 S 6 7 3 4 - - 0.0
23/01:30pm 13.5 12.1 9.7 78 2.0 SE 7 11 4 6 - - 0.0
23/01:00pm 13.0 11.0 10.2 83 1.5 ESE 11 15 6 8 - - 0.0
23/12:30pm 12.9 11.8 10.1 83 1.5 ESE 6 9 3 5 - - 0.0
23/12:00pm 12.6 11.3 9.8 83 1.5 E 7 11 4 6 - - 0.0
23/11:30am 12.0 10.4 10.2 89 0.9 SE 9 11 5 6 - - 0.0
23/11:00am 11.4 10.6 10.9 97 0.3 SE 6 9 3 5 - - 0.0
23/10:30am 11.0 10.9 10.8 99 0.1 WNW 2 7 1 4 - - 0.0
23/10:00am 10.6 9.6 10.4 99 0.1 ESE 6 7 3 4 - - 0.0
23/09:30am 10.2 8.5 10.0 99 0.1 ESE 9 11 5 6 - - 0.0
23/09:00am 9.9 8.2 9.8 99 0.1 ESE 9 11 5 6 - - 0.0
23/08:30am 9.6 7.4 9.5 99 0.1 SE 11 13 6 7 - - 0.0
23/08:00am 9.3 8.8 9.2 99 0.1 SE 2 6 1 3 - - 0.0
23/07:30am 9.3 9.1 9.2 99 0.1 CALM 0 7 0 4 - - 0.0
23/07:00am 9.2 9.0 9.1 99 0.1 CALM 0 0 0 0 - - 0.0
23/06:30am 9.2 8.6 9.1 99 0.1 N 2 6 1 3 - - 0.0
23/06:00am 9.2 8.6 9.1 99 0.1 S 2 6 1 3 - - 0.0
23/05:30am 9.1 8.5 9.0 99 0.1 SSE 2 7 1 4 - - 0.0
23/05:00am 8.9 8.6 8.8 99 0.0 CALM 0 0 0 0 - - 0.0
23/04:30am 9.1 8.9 9.0 99 0.1 CALM 0 0 0 0 - - 0.0
23/04:00am 9.1 8.9 9.0 99 0.1 CALM 0 0 0 0 - - 0.0
23/03:30am 8.9 8.3 8.8 99 0.0 SE 2 6 1 3 - - 0.0
23/03:00am 9.1 7.6 9.0 99 0.1 E 7 9 4 5 - - 0.0
23/02:30am 9.4 9.3 9.3 99 0.1 CALM 0 0 0 0 - - 0.0
23/02:00am 9.5 9.4 9.4 99 0.1 CALM 0 7 0 4 - - 0.0
23/01:30am 9.5 8.6 9.4 99 0.1 ENE 4 6 2 3 - - 0.0
23/01:00am 9.3 9.1 9.2 99 0.1 CALM 0 0 0 0 - - 0.0
23/12:30am 9.2 7.9 9.1 99 0.1 SE 6 9 3 5 - - 0.0
23/12:00am 9.5 7.3 9.4 99 0.1 SE 11 13 6 7 - - 0.0
 
Date/Time
EST
Temp
°C
App
Temp
°C
Dew
Point
Rel
Hum
%
Delta-T
°C
Wind Press
QNH
hPa
Press
MSL
hPa
Rain
since 9 am
mm
Dir
 
Spd
km/h
Gust
km/h
Spd
kts
Gust
kts
22/11:30pm 9.6 7.4 9.5 99 0.1 SE 11 15 6 8 - - 0.0
22/11:00pm 9.7 7.9 9.6 99 0.1 SSE 9 11 5 6 - - 0.0
22/10:30pm 9.7 7.9 9.6 99 0.1 SSE 9 11 5 6 - - 0.0
22/10:00pm 9.7 7.6 9.6 99 0.1 SE 11 13 6 7 - - 0.0
22/09:30pm 9.6 7.4 9.3 98 0.2 ESE 11 13 6 7 - - 0.0
22/09:00pm 10.2 8.5 9.9 98 0.2 SSE 9 13 5 7 - - 0.0
22/08:30pm 10.1 8.7 9.6 97 0.3 SE 7 7 4 4 - - 0.0
22/08:00pm 10.4 9.1 9.9 97 0.3 SSE 7 9 4 5 - - 0.0
22/07:30pm 10.4 7.2 9.9 97 0.3 SW 17 20 9 11 - - 0.0
22/07:00pm 10.4 7.2 9.8 96 0.3 SW 17 22 9 12 - - 0.0
22/06:30pm 10.5 7.2 9.6 94 0.5 SW 17 22 9 12 - - 0.0
22/06:00pm 10.8 7.5 9.6 92 0.6 SW 17 20 9 11 - - 0.0
22/05:30pm 11.5 8.9 9.2 86 1.2 SW 13 20 7 11 - - 0.0
22/05:00pm 13.9 13.2 10.1 78 2.0 WSW 4 7 2 4 - - 0.0
22/04:30pm 15.3 14.7 10.5 73 2.6 NW 4 7 2 4 - - 0.0
22/04:00pm 15.5 15.2 10.1 70 2.9 W 2 7 1 4 - - 0.0
22/03:30pm 16.7 15.8 11.2 70 3.0 NW 7 11 4 6 - - 0.0
22/03:00pm 16.5 15.1 10.8 69 3.1 NNW 9 11 5 6 - - 0.0
22/02:30pm 15.9 14.9 10.9 72 2.7 NW 7 11 4 6 - - 0.0
22/02:00pm 14.4 12.8 10.2 76 2.2 WNW 9 11 5 6 - - 0.0
22/01:30pm 13.5 11.9 10.1 80 1.8 NW 9 13 5 7 - - 0.0
22/01:00pm 12.4 11.0 9.4 82 1.6 NW 7 11 4 6 - - 0.0
22/12:30pm 12.1 10.8 9.8 86 1.2 N 7 15 4 8 - - 0.0
22/12:00pm 11.7 10.6 9.8 88 1.0 N 6 11 3 6 - - 0.0

Other Formats:

Comma delimited format used in spreadsheet applications
http://www.bom.gov.au/fwo/IDT60801/IDT60801.95958.axf

JavaScript Object Notation format (JSON) in row-major order
http://www.bom.gov.au/fwo/IDT60801/IDT60801.95958.json